Altamahaw, North Carolina
Current Conditions -  °F | °C
As of 2:54 AM on Saturday 25 Oct 2014 (Local Time) from KBUY Reporting Station
Clear Clear  
Wind Chill: 39°   Ceiling: Unl
Heat Index: 42°   Visibility: 10mi
Dew Point: 37°   Wind: 5mph
Humidity: 82%   Direction: 280°W
Pressure: 29.99"   Gusts: NA
Location:  36.18°N, 79.51°W
Report Text: KBUY 250654Z AUTO 28004KT 10SM CLR 06/03 A2999 RMK AO2 SLP152 T00560028
Loading
Personal Weather Stations






























Interactive Weather Map
Tropical Storm Tracking
New forecast layout! Learn more

10-Day Weather Forecast

Advertisements
Track Severe Weather on mobile